Time;durP1;ratioP1;P1;durP2;ratioP2;P2;SDS_P1;SDS_P2;PMS_P1;PMS_P2;Temp;Humidity;BMP_temperature;BMP_pressure;BME280_temperature;BME280_humidity;BME280_pressure;Samples;Min_cycle;Max_cycle;Signal;HPM_P1;HPM_P2
2022/05/08 00:01:35;;;;;;;30.03;26.73;;;;;;;12.19;100.00;96795.03;5053977;27;105401;-70
2022/05/08 00:04:02;;;;;;;30.77;27.47;;;;;;;12.19;100.00;96800.38;5053729;27;103991;-70
2022/05/08 00:06:31;;;;;;;33.27;29.43;;;;;;;12.19;100.00;96800.38;5054302;27;102146;-70
2022/05/08 00:09:00;;;;;;;32.00;28.50;;;;;;;12.20;100.00;96793.97;5072552;27;102536;-70
2022/05/08 00:11:27;;;;;;;32.20;28.40;;;;;;;12.19;100.00;96793.19;5071866;27;104118;-70
2022/05/08 00:13:54;;;;;;;34.60;29.03;;;;;;;12.21;100.00;96793.72;5072934;27;101695;-70
2022/05/08 00:16:21;;;;;;;35.07;29.43;;;;;;;12.21;100.00;96788.41;5054016;27;105162;-70
2022/05/08 00:18:49;;;;;;;32.87;27.50;;;;;;;12.20;100.00;96789.47;5072160;27;102765;-70
2022/05/08 00:21:15;;;;;;;35.23;29.90;;;;;;;12.18;100.00;96786.25;5074150;27;101902;-70
2022/05/08 00:23:44;;;;;;;34.10;29.37;;;;;;;12.17;100.00;96794.50;5071767;27;102535;-70
2022/05/08 00:26:11;;;;;;;37.27;30.43;;;;;;;12.14;100.00;96782.47;5072313;27;101834;-70
2022/05/08 00:28:38;;;;;;;36.23;28.73;;;;;;;12.18;100.00;96788.09;5053878;27;106333;-70
2022/05/08 00:31:06;;;;;;;37.40;30.27;;;;;;;12.19;100.00;96784.38;5072040;27;102582;-70
2022/05/08 00:33:34;;;;;;;36.63;29.73;;;;;;;12.18;100.00;96769.44;5053526;27;101985;-70
2022/05/08 00:36:01;;;;;;;35.07;30.00;;;;;;;12.18;100.00;96786.25;5072146;27;102417;-70
2022/05/08 00:38:28;;;;;;;36.93;30.27;;;;;;;12.16;100.00;96776.91;5071687;27;102652;-70
2022/05/08 00:40:56;;;;;;;38.03;30.43;;;;;;;12.18;100.00;96775.59;5072179;27;101833;-70
2022/05/08 00:43:34;;;;;;;39.67;31.43;;;;;;;12.17;100.00;96779.31;5056537;27;104861;-70
2022/05/08 00:46:04;;;;;;;38.13;31.97;;;;;;;12.18;100.00;96774.78;5053565;27;101907;-70
2022/05/08 00:48:32;;;;;;;40.57;31.03;;;;;;;12.15;100.00;96772.63;5053897;27;103573;-70
2022/05/08 00:51:00;;;;;;;40.40;32.47;;;;;;;12.10;100.00;96776.03;5071634;27;102677;-70
2022/05/08 00:53:29;;;;;;;40.67;32.57;;;;;;;12.11;100.00;96771.50;5072220;27;101720;-70
2022/05/08 00:55:57;;;;;;;39.33;31.63;;;;;;;12.12;100.00;96775.78;5071856;27;102719;-70
2022/05/08 00:58:24;;;;;;;41.13;31.43;;;;;;;12.12;100.00;96770.44;5071142;27;102663;-70
2022/05/08 01:00:52;;;;;;;41.83;32.70;;;;;;;12.13;100.00;96772.06;5071716;27;102221;-69
2022/05/08 01:03:19;;;;;;;41.67;33.20;;;;;;;12.11;100.00;96772.28;5053446;27;105813;-70
2022/05/08 01:05:47;;;;;;;45.37;33.00;;;;;;;12.14;100.00;96763.81;5074705;27;102497;-70
2022/05/08 01:08:15;;;;;;;43.30;33.03;;;;;;;12.16;100.00;96775.03;5071464;27;102595;-70
2022/05/08 01:10:42;;;;;;;40.73;32.37;;;;;;;12.15;100.00;96770.75;5036058;27;105841;-70
2022/05/08 01:13:11;;;;;;;45.33;33.53;;;;;;;12.15;100.00;96775.28;5071824;27;101670;-70
2022/05/08 01:15:43;;;;;;;45.03;34.70;;;;;;;12.14;100.00;96766.47;5052798;27;104986;-70
2022/05/08 01:18:12;;;;;;;42.30;33.73;;;;;;;12.14;100.00;96771.00;5069902;27;105419;-70
2022/05/08 01:20:40;;;;;;;41.63;32.83;;;;;;;12.13;100.00;96770.19;5071434;27;101722;-70
2022/05/08 01:23:10;;;;;;;43.97;33.03;;;;;;;12.12;100.00;96770.44;5071200;27;102206;-70
2022/05/08 01:25:46;;;;;;;43.60;32.97;;;;;;;12.13;100.00;96766.72;5052512;27;105518;-70
2022/05/08 01:28:14;;;;;;;40.60;32.03;;;;;;;12.13;100.00;96769.38;5074920;27;102036;-70
2022/05/08 01:30:42;;;;;;;42.40;32.87;;;;;;;12.14;100.00;96773.66;5070888;27;102572;-69
2022/05/08 01:33:09;;;;;;;42.70;33.37;;;;;;;12.13;100.00;96769.38;5071733;27;101728;-70
2022/05/08 01:35:37;;;;;;;43.37;33.23;;;;;;;12.11;100.00;96766.97;5052738;27;105131;-70
2022/05/08 01:38:05;;;;;;;44.23;34.57;;;;;;;12.11;100.00;96766.19;5052394;27;105469;-70
2022/05/08 01:40:37;;;;;;;40.57;31.70;;;;;;;12.12;100.00;96767.78;5071325;27;101699;-70
2022/05/08 01:43:05;;;;;;;41.70;32.30;;;;;;;12.13;100.00;96764.06;5071122;27;102791;-70
2022/05/08 01:45:32;;;;;;;41.83;32.20;;;;;;;12.16;100.00;96766.22;5069605;27;101691;-69
2022/05/08 01:50:44;;;;;;;44.27;33.53;;;;;;;12.16;100.00;96764.34;5074235;27;102859;-69
2022/05/08 01:53:11;;;;;;;44.90;34.77;;;;;;;12.17;100.00;96768.66;5052759;27;102032;-70
2022/05/08 01:55:39;;;;;;;41.97;33.57;;;;;;;12.17;100.00;96766.00;5071166;27;102738;-70
2022/05/08 01:58:06;;;;;;;48.53;37.27;;;;;;;12.20;100.00;96761.97;5070129;27;102581;-70
2022/05/08 02:00:33;;;;;;;46.27;35.90;;;;;;;12.17;100.00;96762.50;5069405;27;101942;-70
2022/05/08 02:03:02;;;;;;;49.40;37.17;;;;;;;12.21;100.00;96766.28;5052407;27;104884;-70
2022/05/08 02:05:31;;;;;;;52.37;36.77;;;;;;;12.16;100.00;96768.91;5069080;27;105236;-70
2022/05/08 02:08:01;;;;;;;50.03;37.60;;;;;;;12.18;100.00;96774.78;5070247;27;101853;-70
2022/05/08 02:10:27;;;;;;;49.73;37.73;;;;;;;12.16;100.00;96761.69;5055482;27;105201;-70
2022/05/08 02:12:56;;;;;;;50.63;38.00;;;;;;;12.16;100.00;96766.22;5070647;27;101847;-70
2022/05/08 02:15:24;;;;;;;49.27;37.20;;;;;;;12.18;100.00;96772.09;5070445;27;102693;-70
2022/05/08 02:17:52;;;;;;;47.33;36.80;;;;;;;12.17;100.00;96773.97;5068724;27;105268;-70
2022/05/08 02:20:18;;;;;;;50.43;38.07;;;;;;;12.17;100.00;96765.16;5052164;27;102022;-70
2022/05/08 02:22:45;;;;;;;51.17;38.47;;;;;;;12.16;100.00;96763.56;5034775;27;106930;-70
2022/05/08 02:25:12;;;;;;;48.60;37.60;;;;;;;12.16;100.00;96768.91;5051526;27;103931;-70
2022/05/08 02:27:41;;;;;;;47.73;37.27;;;;;;;12.19;100.00;96765.72;5070265;27;102189;-70
2022/05/08 02:30:11;;;;;;;49.20;37.07;;;;;;;12.19;100.00;96765.72;5070744;27;102382;-69
2022/05/08 02:32:39;;;;;;;49.90;36.47;;;;;;;12.16;100.00;96767.03;5073725;27;102619;-70
2022/05/08 02:35:09;;;;;;;50.03;37.93;;;;;;;12.18;100.00;96769.44;5070471;27;102427;-70
2022/05/08 02:37:36;;;;;;;48.03;36.90;;;;;;;12.18;100.00;96766.78;5051395;27;105668;-70
2022/05/08 02:40:05;;;;;;;48.50;36.67;;;;;;;12.14;100.00;96769.13;5051733;27;101978;-70
2022/05/08 02:42:32;;;;;;;47.13;35.70;;;;;;;12.13;100.00;96756.88;5068833;27;104851;-70
2022/05/08 02:44:59;;;;;;;49.33;36.00;;;;;;;12.14;100.00;96755.81;5051132;27;106178;-70
2022/05/08 02:47:28;;;;;;;47.10;35.83;;;;;;;12.14;100.00;96757.66;5051867;27;101864;-70
2022/05/08 02:49:55;;;;;;;50.03;37.37;;;;;;;12.13;100.00;96756.88;5051574;27;103756;-70
2022/05/08 02:52:22;;;;;;;46.30;36.93;;;;;;;12.12;100.00;96763.25;5069765;27;102676;-70
2022/05/08 02:54:49;;;;;;;47.70;36.27;;;;;;;12.12;100.00;96757.13;5055172;27;101938;-70
2022/05/08 03:00:05;;;;;;;51.03;37.43;;;;;;;12.10;100.00;96765.34;5051631;27;101831;-70
2022/05/08 03:02:34;;;;;;;49.23;38.90;;;;;;;12.12;100.00;96760.59;5051644;27;104257;-70
2022/05/08 03:05:01;;;;;;;46.23;36.87;;;;;;;12.12;100.00;96759.78;5050881;27;104388;-70
2022/05/08 03:07:29;;;;;;;50.07;38.17;;;;;;;12.12;100.00;96763.25;5051471;27;102404;-70
2022/05/08 03:09:56;;;;;;;51.07;38.23;;;;;;;12.11;100.00;96758.19;5051422;27;105171;-70
2022/05/08 03:12:23;;;;;;;48.73;37.53;;;;;;;12.10;100.00;96756.56;5051076;27;105419;-70
2022/05/08 03:14:51;;;;;;;52.83;37.50;;;;;;;12.12;100.00;96759.78;5068337;27;101894;-70
2022/05/08 03:17:18;;;;;;;53.57;39.07;;;;;;;12.09;100.00;96757.59;5054036;27;105651;-70
2022/05/08 03:19:47;;;;;;;50.80;38.53;;;;;;;12.10;100.00;96762.69;5068425;27;101898;-70
2022/05/08 03:22:14;;;;;;;52.27;39.27;;;;;;;12.11;100.00;96755.50;5069304;27;102805;-70
2022/05/08 03:24:41;;;;;;;54.10;38.97;;;;;;;12.09;100.00;96766.41;5069052;27;102690;-70
2022/05/08 03:27:08;;;;;;;53.70;39.37;;;;;;;12.12;100.00;96765.13;5051340;27;102203;-70
2022/05/08 03:29:35;;;;;;;57.33;40.40;;;;;;;12.12;100.00;96765.13;5069799;27;102444;-70
2022/05/08 03:32:03;;;;;;;52.87;38.53;;;;;;;12.09;100.00;96770.94;5069257;27;103137;-70
2022/05/08 03:34:31;;;;;;;54.07;39.67;;;;;;;12.09;100.00;96768.25;5051237;27;102107;-70
2022/05/08 03:37:00;;;;;;;54.53;40.53;;;;;;;12.07;100.00;96771.19;5069659;27;102911;-70
2022/05/08 03:39:28;;;;;;;53.97;38.77;;;;;;;12.06;100.00;96777.59;5053855;27;105520;-70
2022/05/08 03:41:54;;;;;;;50.10;35.93;;;;;;;12.05;100.00;96772.50;5050967;27;105117;-70
2022/05/08 03:44:21;;;;;;;55.87;38.77;;;;;;;12.03;100.00;96775.41;5050520;27;103776;-70
2022/05/08 03:46:48;;;;;;;54.87;38.90;;;;;;;12.03;100.00;96769.28;5050794;27;101969;-70
2022/05/08 03:49:15;;;;;;;57.83;39.93;;;;;;;12.01;100.00;96784.72;5069444;27;102378;-70
2022/05/08 03:51:42;;;;;;;52.70;38.13;;;;;;;12.06;100.00;96774.13;5050350;27;104012;-70
2022/05/08 03:54:11;;;;;;;53.73;38.53;;;;;;;12.05;100.00;96773.28;5051071;27;101896;-70
2022/05/08 03:56:37;;;;;;;55.53;39.13;;;;;;;12.10;100.00;96775.22;5050613;27;103597;-70
2022/05/08 03:59:05;;;;;;;58.50;40.57;;;;;;;12.10;100.00;96772.56;5050330;27;105502;-70
2022/05/08 04:01:32;;;;;;;56.63;40.07;;;;;;;12.09;100.00;96773.59;5072516;27;101746;-70
2022/05/08 04:04:02;;;;;;;57.10;39.67;;;;;;;12.09;100.00;96776.25;5068981;27;101851;-70
2022/05/08 04:06:30;;;;;;;57.03;40.87;;;;;;;12.08;100.00;96780.00;5069431;27;101695;-70
2022/05/08 04:08:56;;;;;;;61.33;41.33;;;;;;;12.13;100.00;96772.88;5051329;27;105605;-70
2022/05/08 04:11:29;;;;;;;61.70;42.13;;;;;;;12.12;100.00;96776.59;5072145;27;102651;-70
2022/05/08 04:13:56;;;;;;;61.17;42.47;;;;;;;12.10;100.00;96775.22;5053924;27;102000;-70
2022/05/08 04:16:25;;;;;;;63.47;43.97;;;;;;;12.10;100.00;96778.69;5071097;27;104710;-70
2022/05/08 04:18:53;;;;;;;63.20;42.70;;;;;;;12.13;100.00;96777.38;5053636;27;105353;-70
2022/05/08 04:21:20;;;;;;;61.07;44.57;;;;;;;12.14;100.00;96787.81;5057474;27;102052;-70
2022/05/08 04:26:33;;;;;;;63.93;43.60;;;;;;;12.21;100.00;96790.28;5053815;27;101913;-70
2022/05/08 04:29:03;;;;;;;60.57;42.63;;;;;;;12.22;100.00;96789.22;5055082;27;102142;-70
2022/05/08 04:31:33;;;;;;;60.07;42.47;;;;;;;12.23;100.00;96790.81;5053277;27;105207;-70
2022/05/08 04:34:00;;;;;;;59.27;41.87;;;;;;;12.24;100.00;96789.75;5053910;27;101873;-70
2022/05/08 04:36:28;;;;;;;58.67;43.33;;;;;;;12.24;100.00;96789.75;5053578;27;104801;-70
2022/05/08 04:38:55;;;;;;;56.60;42.43;;;;;;;12.26;100.00;96785.00;5053356;27;105332;-70
2022/05/08 04:41:22;;;;;;;57.73;43.23;;;;;;;12.30;100.00;96797.56;5072376;27;101829;-70
2022/05/08 04:43:53;;;;;;;57.40;42.93;;;;;;;12.28;100.00;96796.22;5056557;27;103531;-70
2022/05/08 04:46:21;;;;;;;59.10;42.37;;;;;;;12.35;100.00;96802.97;5070791;27;102160;-70
2022/05/08 04:48:47;;;;;;;58.80;42.97;;;;;;;12.36;100.00;96804.56;5072051;27;102565;-70
2022/05/08 04:51:14;;;;;;;58.30;42.90;;;;;;;12.38;100.00;96801.66;5052765;27;105373;-70
2022/05/08 04:53:41;;;;;;;54.30;42.27;;;;;;;12.46;100.00;96809.19;5053667;27;102058;-70
2022/05/08 04:56:08;;;;;;;54.70;43.33;;;;;;;12.48;100.00;96804.44;5053466;27;103578;-70
2022/05/08 04:58:35;;;;;;;54.87;42.10;;;;;;;12.47;100.00;96816.13;5052638;27;106731;-70
2022/05/08 05:01:04;;;;;;;52.57;42.17;;;;;;;12.45;100.00;96808.41;5071937;27;101865;-70
2022/05/08 05:03:31;;;;;;;54.20;42.87;;;;;;;12.51;100.00;96812.75;5070376;27;104663;-70
2022/05/08 05:05:58;;;;;;;52.40;41.93;;;;;;;12.55;100.00;96813.03;5056308;27;105323;-70
2022/05/08 05:08:25;;;;;;;50.63;40.93;;;;;;;12.60;100.00;96823.75;5053117;27;105517;-70
2022/05/08 05:10:52;;;;;;;49.30;40.07;;;;;;;12.57;100.00;96808.25;5052683;27;106028;-70
2022/05/08 05:13:19;;;;;;;49.63;40.67;;;;;;;12.60;100.00;96821.09;5070289;27;101906;-70
2022/05/08 05:15:46;;;;;;;51.13;40.17;;;;;;;12.63;100.00;96823.22;5053342;27;106018;-70
2022/05/08 05:18:15;;;;;;;47.50;40.50;;;;;;;12.67;100.00;96821.69;5052664;27;103785;-70
2022/05/08 05:20:42;;;;;;;47.37;40.83;;;;;;;12.65;100.00;96821.13;5051871;27;101971;-70
2022/05/08 05:23:09;;;;;;;47.27;39.67;;;;;;;12.68;100.00;96825.97;5052376;27;105071;-70
2022/05/08 05:25:36;;;;;;;47.63;39.23;;;;;;;12.76;100.00;96822.84;5052473;27;105135;-70
2022/05/08 05:28:03;;;;;;;46.73;39.73;;;;;;;12.75;100.00;96835.38;5056368;27;101872;-70
2022/05/08 05:30:30;;;;;;;46.03;39.57;;;;;;;12.79;100.00;96825.00;5052334;27;105477;-70
2022/05/08 05:32:57;;;;;;;47.87;39.97;;;;;;;12.77;100.00;96824.44;5053379;27;101762;-70
2022/05/08 05:35:26;;;;;;;44.37;38.13;;;;;;;12.91;100.00;96831.00;5071345;27;102367;-70
2022/05/08 05:37:53;;;;;;;45.20;38.87;;;;;;;12.94;100.00;96833.13;5052125;27;103999;-70
2022/05/08 05:40:20;;;;;;;47.00;38.47;;;;;;;12.92;100.00;96830.72;5052742;27;101791;-70
2022/05/08 05:42:47;;;;;;;45.40;37.90;;;;;;;12.88;100.00;96834.16;5071195;27;102429;-70
2022/05/08 05:45:14;;;;;;;42.17;36.77;;;;;;;12.85;100.00;96830.13;5051661;27;104185;-69
2022/05/08 05:47:53;;;;;;;42.30;37.17;;;;;;;12.90;100.00;96838.19;5052301;27;101893;-70
2022/05/08 05:50:20;;;;;;;39.67;34.07;;;;;;;12.97;100.00;96838.81;5073792;27;102811;-70
2022/05/08 05:52:49;;;;;;;44.83;37.63;;;;;;;12.96;100.00;96841.72;5070988;27;101914;-70
2022/05/08 05:55:16;;;;;;;47.43;37.97;;;;;;;13.06;100.00;96836.47;5051848;27;104885;-70
2022/05/08 05:57:44;;;;;;;43.37;36.80;;;;;;;13.08;100.00;96835.16;5069892;27;103129;-69
2022/05/08 06:00:13;;;;;;;41.87;36.27;;;;;;;13.10;100.00;96837.56;5070607;27;101915;-69
2022/05/08 06:02:45;;;;;;;40.90;36.20;;;;;;;13.18;100.00;96834.41;5068004;27;102276;-70
2022/05/08 06:05:14;;;;;;;41.93;36.87;;;;;;;13.25;100.00;96835.81;5070013;27;103131;-70
2022/05/08 06:07:43;;;;;;;41.03;36.40;;;;;;;13.33;100.00;96831.88;5070390;27;101892;-70
2022/05/08 06:10:14;;;;;;;41.43;35.77;;;;;;;13.37;100.00;96832.97;5052254;27;105184;-69
2022/05/08 06:12:41;;;;;;;43.40;38.23;;;;;;;13.47;100.00;96838.41;5073410;27;101683;-69
2022/05/08 06:15:10;;;;;;;42.17;36.83;;;;;;;13.51;100.00;96845.63;5070679;27;102580;-69
2022/05/08 06:17:37;;;;;;;43.10;35.97;;;;;;;13.58;100.00;96848.09;5070089;27;102662;-69
2022/05/08 06:20:05;;;;;;;40.13;35.77;;;;;;;13.55;100.00;96841.38;5051734;27;101982;-70
2022/05/08 06:22:33;;;;;;;42.03;37.40;;;;;;;13.50;100.00;96837.88;5051693;27;105172;-69
2022/05/08 06:25:00;;;;;;;37.87;33.70;;;;;;;13.54;100.00;96849.66;5051526;27;104437;-70
2022/05/08 06:27:29;;;;;;;38.47;33.90;;;;;;;13.50;100.00;96848.56;5070782;27;102152;-70
2022/05/08 06:29:56;;;;;;;41.47;35.00;;;;;;;13.54;100.00;96844.31;5051790;27;103581;-70
2022/05/08 06:32:24;;;;;;;39.03;34.87;;;;;;;13.50;100.00;96845.88;5054437;27;103949;-69
2022/05/08 06:34:51;;;;;;;39.47;34.07;;;;;;;13.50;100.00;96845.88;5051821;27;104883;-70
2022/05/08 06:37:17;;;;;;;39.37;34.13;;;;;;;13.54;100.00;96842.47;5051328;27;105468;-70
2022/05/08 06:39:44;;;;;;;37.07;32.57;;;;;;;13.59;100.00;96849.69;5051436;27;101984;-70
2022/05/08 06:42:11;;;;;;;35.77;31.57;;;;;;;13.51;100.00;96850.19;5051835;27;104790;-70
2022/05/08 06:44:48;;;;;;;37.83;33.60;;;;;;;13.57;100.00;96851.81;5051244;27;105075;-70
2022/05/08 06:47:14;;;;;;;38.93;33.20;;;;;;;13.62;100.00;96854.53;5051670;27;101905;-70
2022/05/08 06:49:42;;;;;;;38.57;33.20;;;;;;;13.64;100.00;96849.72;5051242;27;104917;-70
2022/05/08 06:52:08;;;;;;;38.13;34.00;;;;;;;13.63;100.00;96853.47;5069610;27;103083;-70
2022/05/08 06:54:36;;;;;;;37.93;31.87;;;;;;;13.64;100.00;96858.56;5055156;27;101818;-70
2022/05/08 06:57:03;;;;;;;37.47;33.40;;;;;;;13.71;100.00;96855.63;5050795;27;105688;-70
2022/05/08 07:02:27;;;;;;;35.47;31.60;;;;;;;13.70;100.00;96848.69;4969719;28;105868;-70
2022/05/08 07:04:56;;;;;;;35.47;31.00;;;;;;;13.76;100.00;96853.00;5037149;27;105278;-70
2022/05/08 07:07:23;;;;;;;36.43;32.23;;;;;;;13.74;100.00;96857.81;5050964;27;102093;-70
2022/05/08 07:09:51;;;;;;;34.10;30.60;;;;;;;13.69;100.00;96855.88;5051234;27;105707;-70
2022/05/08 07:12:18;;;;;;;33.17;29.70;;;;;;;13.72;100.00;96858.06;5051049;27;105543;-70
2022/05/08 07:14:46;;;;;;;34.97;31.07;;;;;;;13.74;100.00;96863.16;5051071;27;102451;-70
2022/05/08 07:17:19;;;;;;;36.23;32.40;;;;;;;13.68;100.00;96864.97;5071326;27;105288;-70
2022/05/08 07:19:48;;;;;;;36.37;32.00;;;;;;;13.70;100.00;96870.06;5051312;27;101895;-70
2022/05/08 07:22:16;;;;;;;38.43;34.33;;;;;;;13.69;100.00;96863.91;5050941;27;105794;-70
2022/05/08 07:24:43;;;;;;;33.33;29.83;;;;;;;13.68;100.00;96867.66;5050789;27;105481;-70
2022/05/08 07:27:11;;;;;;;32.20;28.80;;;;;;;13.78;100.00;96866.91;5069688;27;101836;-69
2022/05/08 07:29:37;;;;;;;34.07;29.23;;;;;;;13.83;100.00;96865.06;5069504;27;102279;-70
2022/05/08 07:32:04;;;;;;;32.30;28.80;;;;;;;13.98;100.00;96873.19;5050697;27;105083;-70
2022/05/08 07:37:22;;;;;;;31.43;28.23;;;;;;;14.27;100.00;96865.56;5051110;27;105489;-70
2022/05/08 07:39:48;;;;;;;30.33;27.10;;;;;;;14.20;100.00;96865.03;5054028;27;105420;-69
2022/05/08 07:42:15;;;;;;;33.50;29.93;;;;;;;14.31;100.00;96872.84;5051144;27;105847;-69
2022/05/08 07:44:42;;;;;;;29.27;26.17;;;;;;;14.47;100.00;96873.69;5052208;27;103887;-69
2022/05/08 07:47:09;;;;;;;27.37;24.63;;;;;;;14.54;100.00;96866.19;5071449;27;102119;-69
2022/05/08 07:49:36;;;;;;;28.40;25.60;;;;;;;14.67;100.00;96857.69;5054594;27;105153;-69
2022/05/08 07:52:03;;;;;;;25.67;23.17;;;;;;;14.65;100.00;96863.31;5054096;27;105082;-69
2022/05/08 07:54:32;;;;;;;26.17;23.57;;;;;;;14.73;100.00;96870.03;5054523;27;101851;-69
2022/05/08 07:56:58;;;;;;;26.13;23.43;;;;;;;14.66;100.00;96866.78;5054550;27;105241;-69
2022/05/08 07:59:25;;;;;;;25.33;22.83;;;;;;;14.74;100.00;96866.25;5053796;27;105717;-69
2022/05/08 08:01:52;;;;;;;25.97;23.43;;;;;;;14.91;100.00;96867.66;5057898;27;101997;-69
2022/05/08 08:04:20;;;;;;;25.17;22.87;;;;;;;14.99;100.00;96863.66;5053429;27;106413;-70
2022/05/08 08:06:46;;;;;;;23.67;21.47;;;;;;;15.08;100.00;96862.84;5054470;27;101771;-70
2022/05/08 08:09:13;;;;;;;22.70;20.40;;;;;;;15.14;100.00;96866.31;5072666;27;101752;-69
2022/05/08 08:11:42;;;;;;;21.77;19.63;;;;;;;15.11;100.00;96861.50;5072320;27;102989;-69
2022/05/08 08:14:10;;;;;;;21.83;19.83;;;;;;;15.14;100.00;96863.63;5053880;27;102245;-70
2022/05/08 08:16:37;;;;;;;22.67;20.50;;;;;;;15.15;100.00;96879.44;5054046;27;104830;-68
2022/05/08 08:19:04;;;;;;;23.07;20.87;;;;;;;15.30;100.00;96875.97;5072223;27;102662;-69
2022/05/08 08:21:31;;;;;;;20.93;19.03;;;;;;;15.23;100.00;96870.91;5057002;27;101900;-70
2022/05/08 08:23:59;;;;;;;21.07;19.17;;;;;;;15.21;100.00;96875.69;5071531;27;103305;-69
2022/05/08 08:26:26;;;;;;;20.90;18.93;;;;;;;15.37;100.00;96874.66;5072591;27;101831;-69
2022/05/08 08:28:54;;;;;;;20.90;19.00;;;;;;;15.48;100.00;96873.59;5072463;27;102415;-69
2022/05/08 08:31:21;;;;;;;19.80;18.03;;;;;;;15.58;100.00;96870.13;5053560;27;106531;-68
2022/05/08 08:33:49;;;;;;;18.97;17.23;;;;;;;15.56;100.00;96870.38;5072719;27;102041;-69
2022/05/08 08:36:16;;;;;;;20.10;18.20;;;;;;;15.61;100.00;96877.59;5072439;27;102984;-69
2022/05/08 08:38:43;;;;;;;18.43;16.73;;;;;;;15.65;100.00;96867.94;5071874;27;101850;-69
2022/05/08 08:41:14;;;;;;;19.70;17.73;;;;;;;15.65;100.00;96884.03;5072151;27;101948;-68
2022/05/08 08:49:19;;;;;;;17.63;15.93;;;;;;;15.65;100.00;96881.34;5072379;27;101687;-69
2022/05/08 08:51:48;;;;;;;18.73;17.00;;;;;;;15.62;100.00;96879.19;5071713;27;103311;-69
2022/05/08 08:54:15;;;;;;;17.23;15.73;;;;;;;15.56;100.00;96880.28;5072221;27;101801;-69
2022/05/08 08:56:42;;;;;;;17.10;15.33;;;;;;;15.49;100.00;96880.53;5071968;27;102908;-68
2022/05/08 08:59:10;;;;;;;17.43;15.73;;;;;;;15.39;100.00;96883.25;5035103;27;106287;-69
2022/05/08 09:01:42;;;;;;;16.53;15.07;;;;;;;15.34;100.00;96882.44;5071662;27;102217;-69
2022/05/08 09:04:09;;;;;;;16.20;14.70;;;;;;;15.41;100.00;96891.81;5071952;27;102287;-68
2022/05/08 09:06:40;;;;;;;16.77;15.27;;;;;;;15.60;100.00;96886.72;5074927;27;103150;-68
2022/05/08 09:09:25;;;;;;;15.97;14.37;;;;;;;15.36;100.00;96897.19;5053405;27;105011;-68
2022/05/08 09:11:53;;;;;;;16.07;14.63;;;;;;;15.31;100.00;96893.69;5070964;27;104624;-69
2022/05/08 09:14:31;;;;;;;16.30;14.90;;;;;;;15.42;100.00;96889.97;5071363;27;102097;-68
2022/05/08 09:17:00;;;;;;;16.53;14.93;;;;;;;15.46;100.00;96891.00;5071328;27;102363;-72
2022/05/08 09:19:34;;;;;;;16.33;14.77;;;;;;;15.26;100.00;96888.31;5052717;27;103987;-72
2022/05/08 09:22:03;;;;;;;16.20;14.60;;;;;;;15.22;100.00;96889.91;5052840;27;101877;-72
2022/05/08 09:24:31;;;;;;;17.10;15.60;;;;;;;15.11;100.00;96899.81;5052935;27;105896;-72
2022/05/08 09:27:11;;;;;;;17.13;15.53;;;;;;;15.10;100.00;96894.72;5052611;27;105337;-72
2022/05/08 09:29:38;;;;;;;16.17;14.70;;;;;;;15.31;100.00;96894.47;5056460;27;101807;-73
2022/05/08 09:32:10;;;;;;;16.50;15.00;;;;;;;15.58;100.00;96889.66;5052442;27;104058;-73
2022/05/08 09:34:56;;;;;;;16.20;14.70;;;;;;;15.90;100.00;96881.31;5053175;27;102020;-73
2022/05/08 09:37:23;;;;;;;14.90;13.60;;;;;;;16.18;100.00;96884.19;5052990;27;106297;-73
2022/05/08 09:39:53;;;;;;;15.37;14.07;;;;;;;16.55;100.00;96879.25;5069530;27;105307;-74
2022/05/08 09:42:36;;;;;;;15.23;13.83;;;;;;;16.62;100.00;96885.09;5052530;27;101969;-78
2022/05/08 09:45:07;;;;;;;13.53;12.33;;;;;;;17.03;100.00;96880.31;5052834;27;104779;-73
2022/05/08 09:47:43;;;;;;;13.33;12.13;;;;;;;16.99;100.00;96871.19;5052043;27;105947;-74
2022/05/08 09:50:11;;;;;;;13.63;12.33;;;;;;;16.73;100.00;96881.28;5052598;27;101870;-72
2022/05/08 09:52:40;;;;;;;13.30;11.93;;;;;;;16.69;100.00;96871.38;5055310;27;105466;-75
2022/05/08 09:55:12;;;;;;;12.07;11.07;;;;;;;16.81;100.00;96877.22;5052600;27;101780;-76
2022/05/08 09:57:40;;;;;;;12.10;11.00;;;;;;;16.84;100.00;96876.69;5052245;27;104922;-76
2022/05/08 10:00:10;;;;;;;12.37;11.23;;;;;;;16.43;100.00;96886.00;5051965;27;105577;-76
2022/05/08 10:02:47;;;;;;;13.13;11.90;;;;;;;16.22;100.00;96876.38;5052037;27;101937;-76
2022/05/08 10:05:15;;;;;;;13.30;12.10;;;;;;;15.89;100.00;96875.16;5069056;27;104927;-76
2022/05/08 10:07:43;;;;;;;12.33;11.30;;;;;;;16.02;100.00;96882.63;5050594;27;105340;-76
2022/05/08 10:15:43;;;;;;;12.63;11.43;;;;;;;16.47;100.00;96879.78;5055456;27;105095;-75
2022/05/08 10:18:28;;;;;;;12.70;11.60;;;;;;;17.15;100.00;96872.69;5052012;27;105342;-75
2022/05/08 10:21:05;;;;;;;11.90;10.90;;;;;;;17.28;100.00;96870.19;5068795;27;105309;-75
2022/05/08 10:23:36;;;;;;;12.40;11.20;;;;;;;17.88;100.00;96866.19;5070073;27;102250;-75
2022/05/08 10:26:14;;;;;;;11.43;10.33;;;;;;;17.83;100.00;96871.63;5051937;27;105350;-75
2022/05/08 10:29:13;;;;;;;11.47;10.47;;;;;;;17.97;100.00;96873.34;5069896;27;102810;-75
2022/05/08 10:31:45;;;;;;;11.57;10.40;;;;;;;17.72;100.00;96867.44;5051487;27;101867;-75
2022/05/08 10:34:14;;;;;;;10.50;9.60;;;;;;;17.86;100.00;96868.34;5070146;27;104197;-75
2022/05/08 10:37:16;;;;;;;10.63;9.70;;;;;;;17.46;100.00;96868.72;5055867;27;105105;-75
2022/05/08 10:39:45;;;;;;;10.77;9.87;;;;;;;17.45;100.00;96872.50;5043784;27;104323;-75
2022/05/08 10:42:42;;;;;;;11.10;10.10;;;;;;;17.86;100.00;96861.09;5051901;27;105864;-75
2022/05/08 10:45:44;;;;;;;11.10;10.10;;;;;;;17.82;100.00;96867.34;5051695;27;101958;-75
2022/05/08 10:48:12;;;;;;;12.20;11.10;;;;;;;18.17;100.00;96870.47;5070394;27;102587;-75
2022/05/08 10:50:43;;;;;;;10.27;9.40;;;;;;;18.65;100.00;96863.16;5051274;27;105054;-75
2022/05/08 10:53:28;;;;;;;11.47;10.47;;;;;;;18.54;100.00;96859.00;5052654;27;101969;-75
2022/05/08 10:56:06;;;;;;;12.17;10.30;;;;;;;18.43;100.00;96852.13;5051512;27;105572;-75
2022/05/08 10:58:34;;;;;;;10.23;9.30;;;;;;;18.84;100.00;96853.19;5069472;27;103189;-75
2022/05/08 11:01:05;;;;;;;10.67;9.67;;;;;;;19.31;100.00;96853.88;5056064;27;101909;-75
2022/05/08 11:03:35;;;;;;;10.47;9.60;;;;;;;19.29;100.00;96857.97;5051663;27;105759;-75
2022/05/08 11:06:05;;;;;;;9.33;8.53;;;;;;;19.46;100.00;96850.13;5070901;27;101863;-75
2022/05/08 11:08:34;;;;;;;8.93;8.20;;;;;;;19.13;100.00;96854.63;5052267;27;104831;-75
2022/05/08 11:11:07;;;;;;;9.93;9.13;;;;;;;18.91;100.00;96848.25;5051872;27;104843;-75
2022/05/08 11:13:46;;;;;;;10.10;9.20;;;;;;;19.26;100.00;96845.84;5069432;27;101881;-75
2022/05/08 11:16:16;;;;;;;9.90;8.90;;;;;;;19.40;100.00;96849.38;5069324;27;105600;-75
2022/05/08 11:18:43;;;;;;;9.50;8.70;;;;;;;19.92;100.00;96840.94;5051962;27;105287;-75
2022/05/08 11:21:16;;;;;;;8.80;8.10;;;;;;;19.83;100.00;96841.91;5055815;27;102019;-75
2022/05/08 11:23:44;;;;;;;8.87;8.07;;;;;;;19.42;100.00;96849.91;5058272;27;105177;-75
2022/05/08 11:26:12;;;;;;;8.30;7.67;;;;;;;19.40;100.00;96851.31;5055801;27;102057;-75
2022/05/08 11:28:48;;;;;;;8.67;7.97;;;;;;;19.37;100.00;96846.47;5055931;27;105083;-75
2022/05/08 11:31:16;;;;;;;8.60;7.90;;;;;;;19.38;100.00;96845.38;5055054;27;105126;-75
2022/05/08 11:36:31;;;;;;;8.67;7.90;;;;;;;19.58;100.00;96847.75;5055991;27;105277;-75
2022/05/08 11:39:00;;;;;;;8.00;7.30;;;;;;;19.21;100.00;96845.09;5054927;27;105728;-75